Time,TemperatureF,DewpointF,PressureIn,WindDirection,WindDirectionDegrees,WindSpeedMPH,WindSpeedGustMPH,Humidity,HourlyPrecipIn,Conditions,Clouds,dailyrainin,SoftwareType,DateUTC
2013-07-04 20:30:00,67.6,66.4,29.99,SE,141,0.0,0.0,96,0.08,,,0.46,Wunderground v.1.15,2013-07-05 01:30:00,
2013-07-04 20:35:00,67.8,66.6,29.99,NNE,25,1.0,7.0,96,0.06,,,0.46,Wunderground v.1.15,2013-07-05 01:35:00,
2013-07-04 20:40:00,67.7,66.5,29.98,NNE,25,2.0,2.0,96,0.04,,,0.46,Wunderground v.1.15,2013-07-05 01:40:00,
2013-07-04 20:45:00,67.7,66.5,29.99,NNE,25,1.0,2.0,96,0.00,,,0.46,Wunderground v.1.15,2013-07-05 01:45:00,
2013-07-04 20:50:00,67.7,66.5,29.99,NNE,25,0.0,0.0,96,0.00,,,0.46,Wunderground v.1.15,2013-07-05 01:50:00,
2013-07-04 20:55:00,67.6,66.4,29.99,NNE,25,0.0,1.0,96,0.00,,,0.46,Wunderground v.1.15,2013-07-05 01:55:00,
2013-07-04 21:00:00,67.5,66.0,29.99,NNE,25,1.0,1.0,95,0.00,,,0.46,Wunderground v.1.15,2013-07-05 02:00:00,
2013-07-04 21:05:00,67.4,66.2,29.99,NNE,25,1.0,1.0,96,0.00,,,0.46,Wunderground v.1.15,2013-07-05 02:05:00,
2013-07-04 21:10:00,67.5,66.3,29.99,NNE,25,0.0,0.0,96,0.00,,,0.46,Wunderground v.1.15,2013-07-05 02:10:00,
2013-07-04 21:15:00,67.4,66.2,29.99,NNE,25,0.0,0.0,96,0.00,,,0.46,Wunderground v.1.15,2013-07-05 02:15:00,
2013-07-04 21:20:00,67.4,66.2,29.99,NNE,25,0.0,0.0,96,0.00,,,0.46,Wunderground v.1.15,2013-07-05 02:20:00,
2013-07-04 21:25:00,67.3,66.1,29.99,NNE,25,0.0,0.0,96,0.00,,,0.46,Wunderground v.1.15,2013-07-05 02:25:00,
2013-07-04 21:30:00,67.2,66.0,29.99,NNE,25,0.0,0.0,96,0.00,,,0.46,Wunderground v.1.15,2013-07-05 02:30:00,
2013-07-04 21:35:00,67.1,65.9,29.99,NNE,25,0.0,0.0,96,0.00,,,0.46,Wunderground v.1.15,2013-07-05 02:35:00,
2013-07-04 21:40:00,67.0,65.8,29.99,NNE,25,0.0,0.0,96,0.00,,,0.46,Wunderground v.1.15,2013-07-05 02:40:00,
2013-07-04 21:45:00,66.8,65.6,30.00,NNE,25,0.0,0.0,96,0.00,,,0.46,Wunderground v.1.15,2013-07-05 02:45:00,
2013-07-04 21:50:00,66.8,65.6,29.99,NNE,25,0.0,0.0,96,0.00,,,0.46,Wunderground v.1.15,2013-07-05 02:50:00,
2013-07-04 21:55:00,66.8,65.6,30.00,NNE,25,0.0,0.0,96,0.00,,,0.46,Wunderground v.1.15,2013-07-05 02:55:00,
2013-07-04 22:00:00,66.8,65.6,30.00,NNE,25,0.0,0.0,96,0.00,,,0.46,Wunderground v.1.15,2013-07-05 03:00:00,
2013-07-04 22:05:00,66.7,65.5,30.00,NNE,25,0.0,0.0,96,0.00,,,0.46,Wunderground v.1.15,2013-07-05 03:05:00,
2013-07-04 22:10:00,66.6,65.4,30.00,NNE,25,0.0,0.0,96,0.00,,,0.46,Wunderground v.1.15,2013-07-05 03:10:00,
2013-07-04 22:15:00,66.7,65.5,30.00,NNE,25,0.0,0.0,96,0.00,,,0.46,Wunderground v.1.15,2013-07-05 03:15:00,
2013-07-04 22:20:00,66.7,65.8,30.00,NNE,25,0.0,0.0,97,0.00,,,0.46,Wunderground v.1.15,2013-07-05 03:20:00,
2013-07-04 22:25:00,66.7,65.8,30.00,NNE,25,0.0,0.0,97,0.00,,,0.47,Wunderground v.1.15,2013-07-05 03:25:00,
2013-07-04 22:30:00,66.6,65.4,30.00,NNE,25,0.0,0.0,96,0.00,,,0.47,Wunderground v.1.15,2013-07-05 03:30:00,
2013-07-04 22:35:00,66.6,65.7,30.00,NNE,25,0.0,0.0,97,0.00,,,0.47,Wunderground v.1.15,2013-07-05 03:35:00,
2013-07-04 22:40:00,66.7,65.8,30.00,NNE,25,0.0,0.0,97,0.00,,,0.47,Wunderground v.1.15,2013-07-05 03:40:00,
2013-07-04 22:45:00,66.7,65.8,30.00,NNE,25,0.0,0.0,97,0.00,,,0.47,Wunderground v.1.15,2013-07-05 03:45:00,
2013-07-04 22:50:00,66.7,65.8,30.00,NNE,25,0.0,0.0,97,0.00,,,0.47,Wunderground v.1.15,2013-07-05 03:50:00,
2013-07-04 22:55:00,66.6,65.7,30.00,NNE,25,0.0,0.0,97,0.00,,,0.47,Wunderground v.1.15,2013-07-05 03:55:00,
2013-07-04 23:00:00,66.5,65.6,30.00,NNE,25,0.0,0.0,97,0.00,,,0.47,Wunderground v.1.15,2013-07-05 04:00:00,
2013-07-04 23:05:00,66.4,65.5,30.00,NNE,25,0.0,1.0,97,0.00,,,0.47,Wunderground v.1.15,2013-07-05 04:05:00,
2013-07-04 23:10:00,66.4,65.5,30.00,NE,37,0.0,1.0,97,0.00,,,0.47,Wunderground v.1.15,2013-07-05 04:10:00,
2013-07-04 23:15:00,66.5,65.6,30.00,NE,37,1.0,1.0,97,0.00,,,0.47,Wunderground v.1.15,2013-07-05 04:15:00,
2013-07-04 23:20:00,66.5,65.6,30.00,NE,37,1.0,1.0,97,0.00,,,0.47,Wunderground v.1.15,2013-07-05 04:20:00,
2013-07-04 23:25:00,66.5,65.6,30.00,NE,37,0.0,1.0,97,0.00,,,0.47,Wunderground v.1.15,2013-07-05 04:25:00,
2013-07-04 23:30:00,66.5,65.6,30.00,NE,37,0.0,0.0,97,0.00,,,0.47,Wunderground v.1.15,2013-07-05 04:30:00,